createdAt,value
2023-01-20T00:01:06.147Z,-0.40
2023-01-20T00:03:33.138Z,-0.40
2023-01-20T00:06:00.142Z,-0.40
2023-01-20T00:08:27.163Z,-0.40
2023-01-20T00:10:54.138Z,-0.40
2023-01-20T00:13:21.106Z,-0.40
2023-01-20T00:15:48.465Z,-0.40
2023-01-20T00:18:15.572Z,-0.50
2023-01-20T00:20:42.885Z,-0.50
2023-01-20T00:23:10.053Z,-0.50
2023-01-20T00:25:37.111Z,-0.40
2023-01-20T00:28:04.310Z,-0.50
2023-01-20T00:30:31.515Z,-0.40
2023-01-20T00:32:58.672Z,-0.50
2023-01-20T00:35:25.662Z,-0.50
2023-01-20T00:37:52.621Z,-0.50
2023-01-20T00:40:19.590Z,-0.40
2023-01-20T00:42:46.669Z,-0.40
2023-01-20T00:45:14.095Z,-0.40
2023-01-20T00:47:41.239Z,-0.40
2023-01-20T00:50:08.397Z,-0.40
2023-01-20T00:52:35.382Z,-0.40
2023-01-20T00:55:02.792Z,-0.40
2023-01-20T00:57:29.753Z,-0.40
2023-01-20T00:59:56.721Z,-0.40
2023-01-20T01:02:23.730Z,-0.50
2023-01-20T01:04:50.949Z,-0.40
2023-01-20T01:07:18.186Z,-0.40
2023-01-20T01:09:45.419Z,-0.40
2023-01-20T01:12:12.412Z,-0.40
2023-01-20T01:14:39.420Z,-0.50
2023-01-20T01:17:06.417Z,-0.40
2023-01-20T01:19:33.394Z,-0.40
2023-01-20T01:22:00.427Z,-0.40
2023-01-20T01:24:27.412Z,-0.40
2023-01-20T01:26:54.490Z,-0.40
2023-01-20T01:29:21.463Z,-0.40
2023-01-20T01:31:48.483Z,-0.40
2023-01-20T01:34:15.542Z,-0.40
2023-01-20T01:36:42.511Z,-0.50
2023-01-20T01:39:09.569Z,-0.50
2023-01-20T01:41:36.559Z,-0.50
2023-01-20T01:44:03.520Z,-0.50
2023-01-20T01:46:30.633Z,-0.50
2023-01-20T01:48:57.619Z,-0.50
2023-01-20T01:51:28.554Z,-0.50
2023-01-20T01:54:00.041Z,-0.50
2023-01-20T01:56:27.282Z,-0.50
2023-01-20T01:58:54.962Z,-0.50
2023-01-20T02:01:22.179Z,-0.50
2023-01-20T02:04:09.654Z,-0.50
2023-01-20T02:06:38.447Z,-0.50
2023-01-20T02:09:05.532Z,-0.50
2023-01-20T02:11:35.190Z,-0.50
2023-01-20T02:14:02.257Z,-0.50
2023-01-20T02:16:38.349Z,-0.50
2023-01-20T02:19:09.406Z,-0.60
2023-01-20T02:21:55.247Z,-0.60
2023-01-20T02:24:41.205Z,-0.60
2023-01-20T02:27:08.172Z,-0.60
2023-01-20T02:29:41.273Z,-0.60
2023-01-20T02:32:11.418Z,-0.60
2023-01-20T02:34:58.993Z,-0.60
2023-01-20T02:37:27.540Z,-0.60
2023-01-20T02:40:05.726Z,-0.70
2023-01-20T02:42:43.504Z,-0.70
2023-01-20T02:45:16.230Z,-0.70
2023-01-20T02:47:51.564Z,-0.70
2023-01-20T02:50:21.018Z,-0.70
2023-01-20T02:52:54.730Z,-0.70
2023-01-20T02:55:35.113Z,-0.70
2023-01-20T02:58:03.432Z,-0.70
2023-01-20T03:00:37.481Z,-0.70
2023-01-20T03:03:06.238Z,-0.70
2023-01-20T03:05:33.496Z,-0.70
2023-01-20T03:08:01.159Z,-0.70
2023-01-20T03:10:28.871Z,-0.70
2023-01-20T03:12:57.425Z,-0.70
2023-01-20T03:15:25.420Z,-0.70
2023-01-20T03:17:52.378Z,-0.70
2023-01-20T03:20:19.609Z,-0.70
2023-01-20T03:22:46.648Z,-0.60
2023-01-20T03:25:13.920Z,-0.60
2023-01-20T03:27:41.123Z,-0.60
2023-01-20T03:30:14.918Z,-0.60
2023-01-20T03:32:43.079Z,-0.60
2023-01-20T03:35:10.106Z,-0.60
2023-01-20T03:37:37.065Z,-0.60
2023-01-20T03:40:04.404Z,-0.60
2023-01-20T03:42:33.722Z,-0.60
2023-01-20T03:45:01.709Z,-0.60
2023-01-20T03:47:44.068Z,-0.60
2023-01-20T03:50:20.506Z,-0.60
2023-01-20T03:52:54.421Z,-0.60
2023-01-20T03:55:23.192Z,-0.60
2023-01-20T03:57:54.880Z,-0.60
2023-01-20T04:00:21.905Z,-0.60
2023-01-20T04:02:48.942Z,-0.60
2023-01-20T04:05:16.424Z,-0.70
2023-01-20T04:07:43.528Z,-0.60
2023-01-20T04:10:10.887Z,-0.60
2023-01-20T04:12:37.846Z,-0.70
2023-01-20T04:15:05.430Z,-0.70
2023-01-20T04:17:32.398Z,-0.70
2023-01-20T04:20:00.510Z,-0.70
2023-01-20T04:22:43.178Z,-0.70
2023-01-20T04:25:13.836Z,-0.70
2023-01-20T04:27:41.007Z,-0.80
2023-01-20T04:30:08.546Z,-0.80
2023-01-20T04:32:35.583Z,-0.80
2023-01-20T04:35:02.622Z,-0.80
2023-01-20T04:37:29.580Z,-0.70
2023-01-20T04:39:56.689Z,-0.80
2023-01-20T04:42:23.654Z,-0.80
2023-01-20T04:44:50.652Z,-0.80
2023-01-20T04:47:17.631Z,-0.80
2023-01-20T04:49:44.660Z,-0.80
2023-01-20T04:52:11.714Z,-0.90
2023-01-20T04:54:38.681Z,-0.80
2023-01-20T04:57:05.748Z,-0.90
2023-01-20T04:59:32.748Z,-0.90
2023-01-20T05:01:59.892Z,-0.90
2023-01-20T05:04:26.948Z,-0.90
2023-01-20T05:06:53.977Z,-0.80
2023-01-20T05:09:21.082Z,-0.90
2023-01-20T05:11:48.055Z,-0.90
2023-01-20T05:14:15.027Z,-0.80
2023-01-20T05:16:42.759Z,-0.80
2023-01-20T05:19:12.977Z,-0.80
2023-01-20T05:21:40.086Z,-0.80
2023-01-20T05:24:07.076Z,-0.80
2023-01-20T05:26:34.076Z,-0.80
2023-01-20T05:29:02.548Z,-0.80
2023-01-20T05:31:29.605Z,-0.80
2023-01-20T05:33:56.593Z,-0.80
2023-01-20T05:36:28.212Z,-0.80
2023-01-20T05:38:55.246Z,-0.80
2023-01-20T05:41:22.381Z,-0.80
2023-01-20T05:43:49.370Z,-0.80
2023-01-20T05:46:16.355Z,-0.80
2023-01-20T05:48:43.320Z,-0.80
2023-01-20T05:51:10.310Z,-0.80
2023-01-20T05:53:37.453Z,-0.80
2023-01-20T05:56:05.399Z,-0.80
2023-01-20T05:58:32.415Z,-0.80
2023-01-20T06:01:09.426Z,-0.80
2023-01-20T06:03:36.776Z,-0.80
2023-01-20T06:06:04.810Z,-0.90
2023-01-20T06:08:31.896Z,-0.90
2023-01-20T06:10:58.872Z,-0.90
2023-01-20T06:13:26.144Z,-1.00
2023-01-20T06:15:53.619Z,-1.00
2023-01-20T06:18:20.877Z,-1.00
2023-01-20T06:20:48.041Z,-1.00
2023-01-20T06:23:15.150Z,-1.00
2023-01-20T06:25:42.380Z,-1.00
2023-01-20T06:28:09.352Z,-1.00
2023-01-20T06:30:36.657Z,-1.00
2023-01-20T06:33:04.216Z,-1.10
2023-01-20T06:35:31.203Z,-1.10
2023-01-20T06:37:58.632Z,-1.10
2023-01-20T06:40:25.621Z,-1.10
2023-01-20T06:42:52.603Z,-1.10
2023-01-20T06:45:19.582Z,-1.10
2023-01-20T06:47:49.781Z,-1.10
2023-01-20T06:50:16.841Z,-1.00
2023-01-20T06:52:43.868Z,-1.00
2023-01-20T06:55:10.833Z,-1.00
2023-01-20T06:57:37.814Z,-1.00
2023-01-20T07:00:05.462Z,-1.10
2023-01-20T07:02:32.515Z,-1.00
2023-01-20T07:05:00.338Z,-1.00
2023-01-20T07:07:27.380Z,-1.00
2023-01-20T07:09:54.863Z,-1.00
2023-01-20T07:12:21.852Z,-1.00
2023-01-20T07:14:49.074Z,-1.00
2023-01-20T07:17:16.041Z,-1.00
2023-01-20T07:19:43.010Z,-1.00
2023-01-20T07:22:09.998Z,-1.00
2023-01-20T07:24:37.008Z,-1.00
2023-01-20T07:27:04.140Z,-1.00
2023-01-20T07:29:31.163Z,-1.00
2023-01-20T07:31:58.189Z,-1.00
2023-01-20T07:34:25.296Z,-1.00
2023-01-20T07:36:53.252Z,-1.00
2023-01-20T07:39:20.460Z,-1.00
2023-01-20T07:41:49.585Z,-1.00
2023-01-20T07:44:16.646Z,-1.00
2023-01-20T07:46:43.681Z,-0.90
2023-01-20T07:49:12.232Z,-0.90
2023-01-20T07:51:39.833Z,-0.90
2023-01-20T07:54:06.925Z,-0.90
2023-01-20T07:56:33.905Z,-0.90
2023-01-20T07:59:00.902Z,-0.80
2023-01-20T08:01:31.336Z,-0.80
2023-01-20T08:04:00.415Z,-0.80
2023-01-20T08:06:27.508Z,-0.80
2023-01-20T08:08:55.103Z,-0.80
2023-01-20T08:11:23.156Z,-0.80
2023-01-20T08:13:50.475Z,-0.80
2023-01-20T08:16:17.727Z,-0.80
2023-01-20T08:18:44.905Z,-0.80
2023-01-20T08:21:19.331Z,-0.80
2023-01-20T08:23:46.311Z,-0.80
2023-01-20T08:26:13.288Z,-0.70
2023-01-20T08:28:40.309Z,-0.70
2023-01-20T08:31:08.539Z,-0.70
2023-01-20T08:33:35.668Z,-0.70
2023-01-20T08:36:13.010Z,-0.70
2023-01-20T08:38:40.069Z,-0.70
2023-01-20T08:41:07.912Z,-0.70
2023-01-20T08:43:34.934Z,-0.60
2023-01-20T08:46:02.609Z,-0.60
2023-01-20T08:48:29.614Z,-0.50
2023-01-20T08:50:56.899Z,-0.50
2023-01-20T08:53:23.970Z,-0.50
2023-01-20T08:55:54.878Z,-0.50
2023-01-20T08:58:23.459Z,-0.50
2023-01-20T09:00:52.272Z,-0.50
2023-01-20T09:03:19.371Z,-0.50
2023-01-20T09:05:46.431Z,-0.40
2023-01-20T09:08:13.510Z,-0.40
2023-01-20T09:10:40.479Z,-0.40
2023-01-20T09:13:07.449Z,-0.40
2023-01-20T09:15:34.569Z,-0.30
2023-01-20T09:18:01.684Z,-0.30
2023-01-20T09:20:30.151Z,-0.30
2023-01-20T09:23:00.539Z,-0.30
2023-01-20T09:25:27.514Z,-0.20
2023-01-20T09:27:54.509Z,-0.20
2023-01-20T09:30:21.625Z,-0.30
2023-01-20T09:32:49.538Z,-0.20
2023-01-20T09:35:16.904Z,-0.20
2023-01-20T09:38:02.963Z,-0.20
2023-01-20T09:40:53.127Z,-0.20
2023-01-20T09:43:45.233Z,-0.20
2023-01-20T09:46:14.363Z,-0.10
2023-01-20T09:49:15.564Z,-0.10
2023-01-20T09:52:15.027Z,-0.10
2023-01-20T09:54:43.074Z,-0.10
2023-01-20T09:57:10.034Z,-0.10
2023-01-20T09:59:37.995Z,-0.10
2023-01-20T10:02:06.656Z,-0.10
2023-01-20T10:04:46.856Z,-0.10
2023-01-20T10:07:20.019Z,-0.10
2023-01-20T10:10:02.265Z,0.00
2023-01-20T10:12:29.263Z,0.00
2023-01-20T10:15:08.715Z,0.00
2023-01-20T10:17:40.183Z,0.00
2023-01-20T10:20:10.395Z,0.00
2023-01-20T10:22:38.672Z,0.00
2023-01-20T10:25:16.386Z,0.10
2023-01-20T10:27:51.321Z,0.10
2023-01-20T10:30:18.495Z,0.10
2023-01-20T10:32:47.646Z,0.10
2023-01-20T10:35:22.397Z,0.10
2023-01-20T10:37:49.384Z,0.20
2023-01-20T10:40:25.403Z,0.20
2023-01-20T10:42:56.649Z,0.20
2023-01-20T10:45:39.014Z,0.30
2023-01-20T10:48:23.829Z,0.30
2023-01-20T10:50:53.016Z,0.30
2023-01-20T10:53:30.244Z,0.30
2023-01-20T10:56:19.429Z,0.30
2023-01-20T10:58:47.555Z,0.30
2023-01-20T11:01:18.840Z,0.30
2023-01-20T11:03:47.332Z,0.30
2023-01-20T11:06:19.093Z,0.30
2023-01-20T11:08:46.105Z,0.30
2023-01-20T11:11:14.561Z,0.40
2023-01-20T11:13:41.587Z,0.40
2023-01-20T11:16:14.201Z,0.40
2023-01-20T11:18:41.221Z,0.40
2023-01-20T11:21:09.070Z,0.40
2023-01-20T11:23:40.006Z,0.30
2023-01-20T11:26:28.114Z,0.40
2023-01-20T11:29:02.598Z,0.40
2023-01-20T11:31:42.859Z,0.40
2023-01-20T11:34:22.584Z,0.40
2023-01-20T11:36:50.154Z,0.40
2023-01-20T11:39:27.080Z,0.40
2023-01-20T11:42:13.131Z,0.40
2023-01-20T11:44:50.086Z,0.50
2023-01-20T11:47:26.247Z,0.50
2023-01-20T11:50:08.434Z,0.50
2023-01-20T11:52:38.419Z,0.50
2023-01-20T11:55:08.478Z,0.50
2023-01-20T11:57:36.650Z,0.50
2023-01-20T12:00:04.076Z,0.60
2023-01-20T12:02:41.117Z,0.60
2023-01-20T12:05:18.890Z,0.60
2023-01-20T12:07:46.459Z,0.60
2023-01-20T12:10:15.568Z,0.60
2023-01-20T12:12:43.996Z,0.60
2023-01-20T12:15:19.634Z,0.60
2023-01-20T12:17:55.769Z,0.60
2023-01-20T12:20:23.299Z,0.60
2023-01-20T12:22:54.815Z,0.50
2023-01-20T12:25:22.618Z,0.60
2023-01-20T12:27:51.213Z,0.60
2023-01-20T12:30:38.100Z,0.60
2023-01-20T12:33:05.267Z,0.60
2023-01-20T12:35:34.037Z,0.60
2023-01-20T12:38:03.679Z,0.60
2023-01-20T12:40:32.742Z,0.60
2023-01-20T12:43:18.585Z,0.60
2023-01-20T12:45:49.304Z,0.60
2023-01-20T12:48:35.378Z,0.60
2023-01-20T12:51:05.494Z,0.60
2023-01-20T12:54:02.069Z,0.50
2023-01-20T12:56:35.378Z,0.50
2023-01-20T12:59:17.781Z,0.40
2023-01-20T13:02:00.571Z,0.40
2023-01-20T13:04:39.996Z,0.40
2023-01-20T13:07:14.271Z,0.40
2023-01-20T13:09:45.611Z,0.40
2023-01-20T13:12:31.328Z,0.40
2023-01-20T13:15:01.455Z,0.50
2023-01-20T13:17:37.679Z,0.50
2023-01-20T13:20:04.933Z,0.40
2023-01-20T13:22:32.000Z,0.40
2023-01-20T13:24:58.990Z,0.30
2023-01-20T13:27:35.878Z,0.30
2023-01-20T13:30:04.382Z,0.30
2023-01-20T13:32:35.667Z,0.30
2023-01-20T13:35:22.998Z,0.30
2023-01-20T13:37:54.031Z,0.30
2023-01-20T13:40:46.222Z,0.30
2023-01-20T13:43:22.623Z,0.30
2023-01-20T13:45:56.608Z,0.30
2023-01-20T13:48:23.726Z,0.30
2023-01-20T13:50:51.679Z,0.30
2023-01-20T13:53:27.761Z,0.30
2023-01-20T13:56:29.234Z,0.30
2023-01-20T13:58:58.057Z,0.30
2023-01-20T14:01:25.301Z,0.20
2023-01-20T14:04:05.521Z,0.20
2023-01-20T14:06:35.971Z,0.20
2023-01-20T14:09:03.174Z,0.20
2023-01-20T14:11:31.415Z,0.20
2023-01-20T14:13:59.260Z,0.20
2023-01-20T14:16:30.361Z,0.20
2023-01-20T14:19:01.342Z,0.20
2023-01-20T14:21:29.004Z,0.20
2023-01-20T14:23:55.991Z,0.10
2023-01-20T14:26:26.809Z,0.20
2023-01-20T14:28:54.578Z,0.20
2023-01-20T14:31:45.637Z,0.20
2023-01-20T14:34:32.560Z,0.20
2023-01-20T14:37:00.868Z,0.10
2023-01-20T14:39:28.081Z,0.20
2023-01-20T14:41:55.747Z,0.10
2023-01-20T14:44:23.468Z,0.10
2023-01-20T14:46:51.508Z,0.10
2023-01-20T14:49:19.488Z,0.10
2023-01-20T14:51:46.594Z,0.10
2023-01-20T14:54:31.823Z,0.10
2023-01-20T14:56:59.108Z,0.10
2023-01-20T14:59:26.087Z,0.00
2023-01-20T15:01:56.844Z,0.00
2023-01-20T15:04:23.878Z,0.00
2023-01-20T15:06:51.562Z,0.00
2023-01-20T15:09:25.509Z,0.00
2023-01-20T15:11:52.473Z,0.00
2023-01-20T15:14:20.541Z,0.00
2023-01-20T15:16:49.213Z,0.00
2023-01-20T15:19:16.509Z,0.00
2023-01-20T15:21:44.079Z,0.00
2023-01-20T15:24:17.711Z,0.00
2023-01-20T15:26:44.957Z,0.00
2023-01-20T15:29:38.199Z,0.00
2023-01-20T15:32:11.760Z,0.00
2023-01-20T15:34:38.747Z,0.00
2023-01-20T15:37:09.443Z,0.00
2023-01-20T15:39:36.446Z,0.00
2023-01-20T15:42:03.679Z,0.00
2023-01-20T15:44:31.009Z,0.00
2023-01-20T15:46:58.000Z,0.00
2023-01-20T15:49:25.413Z,0.00
2023-01-20T15:51:52.645Z,-0.10
2023-01-20T15:54:19.648Z,0.00
2023-01-20T15:56:46.628Z,0.00
2023-01-20T15:59:14.021Z,-0.10
2023-01-20T16:01:41.035Z,-0.10
2023-01-20T16:04:08.830Z,-0.10
2023-01-20T16:06:35.813Z,-0.10
2023-01-20T16:09:03.360Z,0.00
2023-01-20T16:11:30.335Z,-0.10
2023-01-20T16:13:57.915Z,-0.10
2023-01-20T16:16:26.835Z,-0.10
2023-01-20T16:18:55.713Z,-0.10
2023-01-20T16:21:22.692Z,-0.10
2023-01-20T16:23:49.680Z,-0.10
2023-01-20T16:26:26.676Z,-0.10
2023-01-20T16:28:54.259Z,-0.10
2023-01-20T16:31:21.441Z,-0.10
2023-01-20T16:33:48.618Z,-0.10
2023-01-20T16:36:16.394Z,-0.10
2023-01-20T16:38:43.560Z,-0.10
2023-01-20T16:41:15.246Z,-0.10
2023-01-20T16:43:42.327Z,-0.10
2023-01-20T16:46:19.388Z,-0.10
2023-01-20T16:48:46.545Z,-0.10
2023-01-20T16:51:13.888Z,0.00
2023-01-20T16:53:40.965Z,0.00
2023-01-20T16:56:15.074Z,0.00
2023-01-20T16:58:42.391Z,0.00
2023-01-20T17:01:12.272Z,0.00
2023-01-20T17:03:39.871Z,0.00
2023-01-20T17:06:10.806Z,0.00
2023-01-20T17:08:38.036Z,0.00
2023-01-20T17:11:05.171Z,0.00
2023-01-20T17:13:32.160Z,0.00
2023-01-20T17:15:59.217Z,0.00
2023-01-20T17:18:26.211Z,0.00
2023-01-20T17:20:53.175Z,-0.10
2023-01-20T17:23:20.150Z,0.00
2023-01-20T17:25:48.307Z,0.00
2023-01-20T17:28:15.331Z,0.00
2023-01-20T17:30:42.331Z,-0.10
2023-01-20T17:33:09.320Z,0.00
2023-01-20T17:35:36.283Z,0.00
2023-01-20T17:38:03.292Z,0.00
2023-01-20T17:40:30.319Z,0.00
2023-01-20T17:42:57.368Z,0.00
2023-01-20T17:45:24.487Z,0.00
2023-01-20T17:47:52.102Z,0.00
2023-01-20T17:50:19.434Z,0.00
2023-01-20T17:52:46.406Z,0.00
2023-01-20T17:55:13.441Z,0.00
2023-01-20T17:57:40.413Z,0.00
2023-01-20T18:00:07.785Z,0.00
2023-01-20T18:02:34.914Z,0.00
2023-01-20T18:05:01.976Z,-0.10
2023-01-20T18:07:28.983Z,0.00
2023-01-20T18:09:55.953Z,-0.10
2023-01-20T18:12:22.938Z,-0.10
2023-01-20T18:14:49.927Z,-0.10
2023-01-20T18:17:16.933Z,-0.10
2023-01-20T18:19:43.899Z,0.00
2023-01-20T18:22:11.474Z,-0.10
2023-01-20T18:24:38.557Z,-0.10
2023-01-20T18:27:05.747Z,0.00
2023-01-20T18:29:35.307Z,0.00
2023-01-20T18:32:02.647Z,0.00
2023-01-20T18:34:29.658Z,-0.10
2023-01-20T18:36:56.807Z,0.00
2023-01-20T18:39:24.027Z,-0.10
2023-01-20T18:41:51.108Z,-0.10
2023-01-20T18:44:18.178Z,-0.10
2023-01-20T18:46:45.312Z,-0.10
2023-01-20T18:49:15.541Z,-0.10
2023-01-20T18:51:42.848Z,-0.10
2023-01-20T18:54:20.794Z,-0.10
2023-01-20T18:56:47.924Z,-0.20
2023-01-20T18:59:14.994Z,-0.20
2023-01-20T19:01:42.086Z,-0.20
2023-01-20T19:04:09.705Z,-0.20
2023-01-20T19:06:38.016Z,-0.20
2023-01-20T19:09:05.041Z,-0.20
2023-01-20T19:11:34.198Z,-0.30
2023-01-20T19:14:01.236Z,-0.30
2023-01-20T19:16:32.357Z,-0.20
2023-01-20T19:19:00.124Z,-0.20
2023-01-20T19:21:27.235Z,-0.30
2023-01-20T19:23:54.969Z,-0.30
2023-01-20T19:26:22.613Z,-0.30
2023-01-20T19:28:54.888Z,-0.30
2023-01-20T19:31:21.976Z,-0.30
2023-01-20T19:33:49.895Z,-0.30
2023-01-20T19:36:17.221Z,-0.30
2023-01-20T19:38:44.352Z,-0.30
2023-01-20T19:41:12.327Z,-0.30
2023-01-20T19:43:39.328Z,-0.30
2023-01-20T19:46:10.454Z,-0.30
2023-01-20T19:48:37.556Z,-0.40
2023-01-20T19:51:07.653Z,-0.30
2023-01-20T19:53:34.737Z,-0.40
2023-01-20T19:56:05.911Z,-0.40
2023-01-20T19:58:33.005Z,-0.40
2023-01-20T20:01:06.084Z,-0.40
2023-01-20T20:03:33.135Z,-0.40
2023-01-20T20:06:00.184Z,-0.40
2023-01-20T20:08:27.164Z,-0.40
2023-01-20T20:10:54.772Z,-0.40
2023-01-20T20:13:22.823Z,-0.40
2023-01-20T20:15:49.913Z,-0.40
2023-01-20T20:18:16.918Z,-0.40
2023-01-20T20:20:44.329Z,-0.40
2023-01-20T20:23:11.389Z,-0.40
2023-01-20T20:25:38.408Z,-0.40
2023-01-20T20:28:06.088Z,-0.40
2023-01-20T20:30:33.170Z,-0.40
2023-01-20T20:33:01.662Z,-0.40
2023-01-20T20:35:28.639Z,-0.40
2023-01-20T20:37:55.640Z,-0.40
2023-01-20T20:40:25.106Z,-0.40
2023-01-20T20:42:52.110Z,-0.40
2023-01-20T20:45:19.580Z,-0.40
2023-01-20T20:47:46.624Z,-0.40
2023-01-20T20:50:13.715Z,-0.40
2023-01-20T20:52:40.720Z,-0.40
2023-01-20T20:55:07.828Z,-0.50
2023-01-20T20:57:34.809Z,-0.40
2023-01-20T21:00:01.837Z,-0.40
2023-01-20T21:02:28.862Z,-0.50
2023-01-20T21:04:55.938Z,-0.40
2023-01-20T21:07:22.909Z,-0.50
2023-01-20T21:09:50.189Z,-0.40
2023-01-20T21:12:17.915Z,-0.40
2023-01-20T21:14:44.886Z,-0.50
2023-01-20T21:17:12.058Z,-0.50
2023-01-20T21:19:39.052Z,-0.50
2023-01-20T21:22:06.119Z,-0.50
2023-01-20T21:24:33.122Z,-0.50
2023-01-20T21:27:00.282Z,-0.50
2023-01-20T21:29:27.671Z,-0.50
2023-01-20T21:31:55.139Z,-0.50
2023-01-20T21:34:22.174Z,-0.50
2023-01-20T21:36:49.227Z,-0.60
2023-01-20T21:39:16.657Z,-0.50
2023-01-20T21:41:43.680Z,-0.50
2023-01-20T21:44:28.986Z,-0.60
2023-01-20T21:46:56.315Z,-0.60
2023-01-20T21:49:42.002Z,-0.60
2023-01-20T21:52:29.296Z,-0.60
2023-01-20T21:54:56.304Z,-0.60
2023-01-20T21:57:23.367Z,-0.60
2023-01-20T21:59:50.443Z,-0.70
2023-01-20T22:02:17.608Z,-0.60
2023-01-20T22:04:46.088Z,-0.60
2023-01-20T22:07:13.588Z,-0.60
2023-01-20T22:09:40.600Z,-0.60
2023-01-20T22:12:07.892Z,-0.60
2023-01-20T22:14:34.973Z,-0.70
2023-01-20T22:17:01.991Z,-0.60
2023-01-20T22:19:29.029Z,-0.60
2023-01-20T22:21:56.831Z,-0.70
2023-01-20T22:24:23.867Z,-0.70
2023-01-20T22:26:50.960Z,-0.70
2023-01-20T22:29:18.035Z,-0.70
2023-01-20T22:31:45.408Z,-0.70
2023-01-20T22:34:12.427Z,-0.70
2023-01-20T22:36:39.410Z,-0.70
2023-01-20T22:39:06.542Z,-0.80
2023-01-20T22:41:33.576Z,-0.70
2023-01-20T22:44:00.594Z,-0.70
2023-01-20T22:46:27.763Z,-0.70
2023-01-20T22:48:55.445Z,-0.70
2023-01-20T22:51:23.244Z,-0.80
2023-01-20T22:53:50.503Z,-0.80
2023-01-20T22:56:18.386Z,-0.70
2023-01-20T22:58:45.426Z,-0.80
2023-01-20T23:01:12.913Z,-0.80
2023-01-20T23:03:40.377Z,-0.80
2023-01-20T23:06:07.671Z,-0.80
2023-01-20T23:08:34.725Z,-0.80
2023-01-20T23:11:02.855Z,-0.80
2023-01-20T23:13:29.895Z,-0.80
2023-01-20T23:15:56.887Z,-0.80
2023-01-20T23:18:23.967Z,-0.80
2023-01-20T23:20:51.403Z,-0.90
2023-01-20T23:23:18.603Z,-0.80
2023-01-20T23:25:45.628Z,-0.80
2023-01-20T23:28:13.010Z,-0.80
2023-01-20T23:30:39.992Z,-0.80
2023-01-20T23:33:07.097Z,-0.80
2023-01-20T23:35:35.065Z,-0.80
2023-01-20T23:38:02.053Z,-0.80
2023-01-20T23:40:30.168Z,-0.80
2023-01-20T23:42:57.202Z,-0.80
2023-01-20T23:45:24.162Z,-0.80
2023-01-20T23:47:51.606Z,-0.80
2023-01-20T23:50:18.743Z,-0.80
2023-01-20T23:52:45.761Z,-0.90
2023-01-20T23:55:12.722Z,-0.90
2023-01-20T23:57:39.877Z,-0.90
